createdAt,value
2022-08-16T00:01:33.722Z,1.27
2022-08-16T00:04:05.500Z,1.30
2022-08-16T00:06:33.502Z,1.37
2022-08-16T00:09:01.197Z,1.40
2022-08-16T00:11:28.899Z,1.47
2022-08-16T00:13:56.707Z,1.30
2022-08-16T00:17:01.704Z,1.50
2022-08-16T00:19:15.707Z,1.30
2022-08-16T00:21:43.562Z,1.47
2022-08-16T00:24:12.405Z,1.10
2022-08-16T00:26:44.257Z,1.20
2022-08-16T00:29:15.963Z,1.07
2022-08-16T00:31:59.720Z,1.40
2022-08-16T00:34:43.710Z,1.73
2022-08-16T00:37:20.463Z,1.40
2022-08-16T00:39:57.224Z,1.70
2022-08-16T00:42:30.133Z,1.73
2022-08-16T00:45:09.531Z,1.40
2022-08-16T00:47:49.556Z,1.50
2022-08-16T00:50:18.614Z,1.00
2022-08-16T00:52:50.838Z,1.77
2022-08-16T00:55:22.094Z,1.77
2022-08-16T00:57:59.224Z,1.60
2022-08-16T01:00:30.990Z,1.07
2022-08-16T01:03:05.862Z,1.17
2022-08-16T01:05:39.960Z,1.53
2022-08-16T01:08:35.301Z,1.10
2022-08-16T01:11:00.010Z,1.30
2022-08-16T01:13:32.624Z,1.30
2022-08-16T01:16:03.624Z,1.60
2022-08-16T01:18:40.154Z,2.00
2022-08-16T01:21:33.274Z,1.50
2022-08-16T01:24:53.314Z,1.80
2022-08-16T01:27:06.241Z,1.80
2022-08-16T01:29:57.874Z,1.63
2022-08-16T01:32:41.152Z,1.67
2022-08-16T01:35:17.095Z,1.47
2022-08-16T01:37:53.047Z,1.50
2022-08-16T01:40:29.447Z,1.70
2022-08-16T01:42:58.176Z,1.70
2022-08-16T01:45:39.735Z,1.53
2022-08-16T01:48:19.868Z,1.83
2022-08-16T01:51:09.451Z,1.67
2022-08-16T01:53:40.514Z,1.40
2022-08-16T01:56:23.710Z,1.80
2022-08-16T01:58:55.629Z,1.83
2022-08-16T02:01:26.220Z,1.57
2022-08-16T02:03:58.483Z,1.53
2022-08-16T02:06:40.368Z,2.10
2022-08-16T02:09:17.706Z,1.20
2022-08-16T02:11:53.237Z,1.77
2022-08-16T02:14:26.567Z,1.53
2022-08-16T02:16:57.345Z,1.40
2022-08-16T02:20:00.083Z,1.47
2022-08-16T02:22:34.871Z,1.50
2022-08-16T02:25:10.108Z,1.33
2022-08-16T02:27:39.986Z,1.40
2022-08-16T02:30:37.946Z,1.20
2022-08-16T02:33:03.281Z,1.77
2022-08-16T02:35:31.959Z,1.60
2022-08-16T02:38:01.859Z,1.40
2022-08-16T02:40:37.879Z,1.10
2022-08-16T02:43:09.699Z,1.70
2022-08-16T02:45:39.631Z,1.80
2022-08-16T02:48:28.627Z,1.53
2022-08-16T02:51:06.236Z,1.60
2022-08-16T02:53:37.206Z,1.70
2022-08-16T02:56:09.891Z,1.53
2022-08-16T02:58:39.886Z,1.37
2022-08-16T03:01:12.613Z,1.57
2022-08-16T03:04:49.538Z,1.40
2022-08-16T03:06:42.817Z,1.40
2022-08-16T03:09:22.404Z,1.50
2022-08-16T03:11:54.672Z,1.40
2022-08-16T03:14:24.704Z,1.67
2022-08-16T03:16:59.227Z,1.80
2022-08-16T03:19:47.334Z,1.70
2022-08-16T03:22:18.999Z,1.47
2022-08-16T03:24:57.516Z,1.70
2022-08-16T03:27:30.764Z,1.80
2022-08-16T03:30:16.260Z,1.50
2022-08-16T03:32:47.984Z,1.63
2022-08-16T03:35:22.718Z,1.70
2022-08-16T03:38:02.909Z,1.40
2022-08-16T03:40:39.164Z,1.70
2022-08-16T03:43:20.765Z,1.47
2022-08-16T03:45:55.239Z,1.93
2022-08-16T03:48:36.798Z,1.57
2022-08-16T03:51:13.857Z,1.47
2022-08-16T03:53:57.760Z,1.57
2022-08-16T03:56:30.494Z,1.80
2022-08-16T03:58:59.743Z,1.50
2022-08-16T04:01:33.581Z,1.50
2022-08-16T04:04:02.125Z,1.50
2022-08-16T04:06:30.792Z,1.30
2022-08-16T04:08:58.470Z,1.47
2022-08-16T04:11:26.832Z,1.57
2022-08-16T04:14:32.950Z,1.23
2022-08-16T04:16:55.428Z,1.60
2022-08-16T04:19:37.632Z,1.67
2022-08-16T04:22:13.718Z,1.70
2022-08-16T04:24:54.837Z,1.80
2022-08-16T04:27:29.028Z,1.40
2022-08-16T04:30:02.900Z,1.40
2022-08-16T04:32:37.800Z,1.50
2022-08-16T04:35:16.471Z,1.43
2022-08-16T04:37:45.544Z,2.13
2022-08-16T04:41:14.816Z,1.57
2022-08-16T04:43:43.689Z,2.03
2022-08-16T04:46:26.567Z,1.90
2022-08-16T04:49:08.034Z,1.80
2022-08-16T04:51:36.311Z,1.77
2022-08-16T04:54:05.089Z,1.60
2022-08-16T04:56:34.333Z,1.43
2022-08-16T04:59:11.159Z,1.50
2022-08-16T05:01:58.191Z,1.50
2022-08-16T05:04:30.095Z,1.97
2022-08-16T05:06:58.580Z,2.10
2022-08-16T05:09:42.782Z,1.60
2022-08-16T05:12:21.960Z,2.00
2022-08-16T05:15:01.760Z,1.70
2022-08-16T05:17:34.090Z,1.93
2022-08-16T05:20:38.750Z,1.63
2022-08-16T05:23:01.193Z,1.63
2022-08-16T05:25:30.045Z,2.30
2022-08-16T05:28:10.655Z,2.10
2022-08-16T05:30:43.301Z,2.00
2022-08-16T05:33:20.935Z,1.90
2022-08-16T05:35:54.939Z,2.10
2022-08-16T05:38:39.650Z,1.43
2022-08-16T05:41:13.816Z,2.30
2022-08-16T05:43:46.540Z,2.53
2022-08-16T05:46:28.557Z,1.73
2022-08-16T05:49:03.695Z,1.73
2022-08-16T05:51:38.587Z,2.00
2022-08-16T05:54:11.212Z,1.70
2022-08-16T05:56:40.473Z,1.40
2022-08-16T05:59:11.097Z,2.00
2022-08-16T06:01:40.018Z,1.80
2022-08-16T06:04:13.618Z,1.70
2022-08-16T06:06:58.826Z,2.13
2022-08-16T06:09:42.639Z,2.60
2022-08-16T06:12:12.668Z,1.80
2022-08-16T06:14:58.492Z,1.80
2022-08-16T06:17:41.513Z,1.90
2022-08-16T06:20:18.402Z,2.10
2022-08-16T06:22:57.494Z,1.80
2022-08-16T06:25:36.221Z,2.10
2022-08-16T06:28:09.494Z,1.73
2022-08-16T06:30:44.210Z,1.57
2022-08-16T06:33:19.746Z,1.60
2022-08-16T06:35:59.521Z,2.00
2022-08-16T06:38:33.456Z,2.23
2022-08-16T06:41:13.895Z,2.00
2022-08-16T06:43:44.120Z,1.83
2022-08-16T06:46:32.006Z,1.87
2022-08-16T06:49:05.240Z,1.77
2022-08-16T06:51:46.340Z,1.80
2022-08-16T06:54:22.908Z,3.43
2022-08-16T06:56:55.344Z,2.20
2022-08-16T06:59:27.150Z,2.03
2022-08-16T07:01:59.651Z,1.70
2022-08-16T07:04:33.299Z,1.97
2022-08-16T07:07:12.292Z,1.90
2022-08-16T07:09:44.191Z,2.00
2022-08-16T07:12:12.523Z,1.27
2022-08-16T07:14:47.882Z,1.93
2022-08-16T07:17:18.283Z,1.70
2022-08-16T07:20:02.824Z,1.43
2022-08-16T07:23:13.383Z,2.20
2022-08-16T07:25:50.672Z,1.70
2022-08-16T07:28:20.652Z,1.70
2022-08-16T07:30:53.114Z,2.00
2022-08-16T07:33:52.712Z,1.90
2022-08-16T07:36:22.504Z,2.60
2022-08-16T07:38:52.557Z,2.40
2022-08-16T07:41:23.080Z,1.60
2022-08-16T07:43:55.750Z,2.37
2022-08-16T07:46:38.609Z,2.30
2022-08-16T07:49:32.472Z,1.97
2022-08-16T07:52:01.703Z,2.20
2022-08-16T07:54:48.993Z,1.97
2022-08-16T07:57:24.089Z,1.87
2022-08-16T07:59:57.203Z,1.80
2022-08-16T08:02:27.423Z,2.07
2022-08-16T08:04:57.875Z,1.87
2022-08-16T08:07:28.808Z,1.60
2022-08-16T08:10:01.605Z,2.03
2022-08-16T08:12:36.063Z,2.20
2022-08-16T08:15:09.804Z,2.13
2022-08-16T08:17:42.812Z,2.30
2022-08-16T08:20:26.379Z,2.30
2022-08-16T08:22:59.933Z,2.43
2022-08-16T08:25:54.382Z,2.10
2022-08-16T08:28:19.945Z,2.70
2022-08-16T08:31:01.561Z,2.10
2022-08-16T08:33:34.624Z,2.70
2022-08-16T08:36:05.570Z,2.17
2022-08-16T08:38:44.997Z,2.77
2022-08-16T08:41:18.208Z,1.50
2022-08-16T08:43:50.423Z,2.60
2022-08-16T08:46:21.317Z,2.00
2022-08-16T08:49:00.084Z,2.60
2022-08-16T08:51:37.088Z,2.27
2022-08-16T08:54:09.509Z,2.13
2022-08-16T08:56:45.387Z,1.80
2022-08-16T08:59:27.352Z,2.13
2022-08-16T09:01:57.972Z,2.40
2022-08-16T09:04:41.679Z,2.17
2022-08-16T09:07:16.916Z,2.37
2022-08-16T09:09:47.676Z,2.37
2022-08-16T09:12:30.162Z,2.60
2022-08-16T09:15:15.945Z,2.30
2022-08-16T09:17:54.931Z,2.23
2022-08-16T09:20:26.938Z,2.70
2022-08-16T09:22:55.715Z,2.33
2022-08-16T09:25:34.299Z,3.13
2022-08-16T09:28:08.871Z,2.70
2022-08-16T09:30:43.346Z,1.87
2022-08-16T09:33:14.496Z,2.37
2022-08-16T09:35:43.127Z,2.60
2022-08-16T09:38:22.326Z,2.33
2022-08-16T09:41:00.624Z,2.53
2022-08-16T09:43:58.280Z,2.27
2022-08-16T09:46:45.267Z,2.00
2022-08-16T09:49:05.020Z,2.33
2022-08-16T09:51:37.583Z,2.67
2022-08-16T09:54:06.120Z,2.23
2022-08-16T09:56:39.715Z,2.53
2022-08-16T09:59:23.415Z,2.63
2022-08-16T10:01:52.950Z,2.23
2022-08-16T10:04:31.180Z,2.57
2022-08-16T10:07:15.639Z,2.20
2022-08-16T10:09:55.492Z,2.40
2022-08-16T10:12:43.405Z,2.70
2022-08-16T10:15:16.118Z,2.80
2022-08-16T10:18:00.927Z,2.87
2022-08-16T10:20:32.525Z,2.50
2022-08-16T10:23:07.462Z,2.70
2022-08-16T10:27:17.461Z,2.20
2022-08-16T10:28:28.474Z,2.20
2022-08-16T10:30:58.775Z,1.83
2022-08-16T10:33:33.181Z,3.27
2022-08-16T10:36:03.861Z,2.37
2022-08-16T10:38:36.750Z,2.40
2022-08-16T10:41:05.617Z,3.00
2022-08-16T10:43:35.215Z,2.80
2022-08-16T10:46:04.107Z,2.27
2022-08-16T10:48:54.942Z,2.43
2022-08-16T10:51:34.185Z,2.50
2022-08-16T10:54:29.681Z,2.57
2022-08-16T10:56:58.636Z,2.57
2022-08-16T10:59:39.241Z,2.20
2022-08-16T11:03:04.738Z,2.60
2022-08-16T11:05:08.863Z,2.20
2022-08-16T11:07:52.535Z,2.07
2022-08-16T11:16:25.412Z,2.70
2022-08-16T11:19:05.835Z,2.63
2022-08-16T11:24:41.244Z,2.07
2022-08-16T11:27:23.655Z,2.50
2022-08-16T11:29:55.757Z,2.77
2022-08-16T11:32:31.787Z,2.30
2022-08-16T11:35:13.202Z,2.60
2022-08-16T11:40:38.573Z,2.30
2022-08-16T11:43:10.012Z,2.80
2022-08-16T11:45:39.402Z,2.23
2022-08-16T11:48:10.757Z,2.10
2022-08-16T11:50:38.480Z,2.10
2022-08-16T11:53:08.531Z,2.30
2022-08-16T11:55:38.296Z,2.30
2022-08-16T11:58:07.427Z,2.30
2022-08-16T12:00:51.650Z,2.40
2022-08-16T12:03:34.846Z,2.00
2022-08-16T12:06:10.961Z,1.83
2022-08-16T12:08:57.429Z,2.00
2022-08-16T12:11:31.405Z,2.00
2022-08-16T12:13:59.910Z,2.10
2022-08-16T12:16:31.220Z,2.00
2022-08-16T12:19:02.382Z,2.23
2022-08-16T12:21:36.226Z,3.00
2022-08-16T12:24:22.179Z,2.50
2022-08-16T12:26:51.977Z,2.50
2022-08-16T12:29:20.466Z,1.90
2022-08-16T12:32:00.726Z,2.00
2022-08-16T12:34:30.500Z,2.40
2022-08-16T12:36:59.351Z,2.30
2022-08-16T12:39:28.997Z,2.13
2022-08-16T12:41:57.553Z,2.30
2022-08-16T12:44:26.615Z,2.40
2022-08-16T12:47:16.694Z,2.03
2022-08-16T12:49:44.328Z,2.40
2022-08-16T12:52:32.852Z,2.40
2022-08-16T12:55:03.501Z,2.37
2022-08-16T12:57:36.668Z,2.10
2022-08-16T13:00:07.100Z,1.70
2022-08-16T13:02:46.679Z,2.40
2022-08-16T13:05:15.857Z,2.30
2022-08-16T13:07:45.354Z,1.83
2022-08-16T13:10:36.842Z,2.77
2022-08-16T13:13:06.699Z,2.47
2022-08-16T13:15:55.563Z,2.27
2022-08-16T13:18:33.923Z,2.30
2022-08-16T13:21:03.940Z,2.03
2022-08-16T13:23:32.285Z,2.30
2022-08-16T13:26:01.601Z,2.40
2022-08-16T13:28:29.269Z,2.40
2022-08-16T13:30:58.919Z,2.00
2022-08-16T13:33:30.439Z,2.07
2022-08-16T13:36:01.432Z,2.50
2022-08-16T13:38:36.429Z,2.50
2022-08-16T13:41:08.251Z,2.13
2022-08-16T13:43:38.794Z,2.27
2022-08-16T13:46:07.608Z,1.50
2022-08-16T13:48:42.908Z,2.53
2022-08-16T13:51:16.812Z,2.27
2022-08-16T13:53:45.848Z,2.03
2022-08-16T13:56:25.355Z,2.50
2022-08-16T13:58:55.175Z,2.40
2022-08-16T14:01:23.571Z,2.00
2022-08-16T14:03:55.763Z,2.07
2022-08-16T14:06:23.663Z,1.90
2022-08-16T14:08:59.110Z,1.80
2022-08-16T14:11:36.153Z,1.90
2022-08-16T14:14:05.545Z,1.40
2022-08-16T14:16:35.110Z,2.20
2022-08-16T14:19:03.520Z,1.80
2022-08-16T14:21:34.797Z,2.10
2022-08-16T14:24:12.788Z,2.10
2022-08-16T14:26:52.850Z,2.13
2022-08-16T14:29:21.280Z,2.97
2022-08-16T14:31:54.108Z,2.17
2022-08-16T14:34:25.543Z,2.27
2022-08-16T14:36:56.759Z,2.37
2022-08-16T14:39:24.622Z,2.47
2022-08-16T14:41:55.800Z,2.40
2022-08-16T14:44:24.318Z,2.27
2022-08-16T14:46:54.667Z,2.30
2022-08-16T14:49:23.503Z,2.83
2022-08-16T14:51:51.625Z,2.10
2022-08-16T14:54:20.039Z,2.70
2022-08-16T14:56:54.888Z,2.50
2022-08-16T14:59:24.521Z,2.23
2022-08-16T15:01:59.274Z,2.70
2022-08-16T15:04:32.478Z,2.57
2022-08-16T15:07:10.968Z,2.30
2022-08-16T15:09:44.309Z,2.20
2022-08-16T15:12:31.172Z,2.17
2022-08-16T15:15:13.155Z,2.40
2022-08-16T15:17:54.186Z,2.20
2022-08-16T15:20:26.450Z,2.67
2022-08-16T15:22:55.111Z,2.00
2022-08-16T15:25:27.557Z,2.20
2022-08-16T15:27:58.549Z,2.30
2022-08-16T15:30:56.979Z,2.00
2022-08-16T15:33:19.736Z,2.67
2022-08-16T15:35:50.081Z,1.83
2022-08-16T15:38:56.901Z,2.27
2022-08-16T15:41:06.754Z,2.30
2022-08-16T15:43:40.021Z,2.60
2022-08-16T15:46:54.638Z,2.50
2022-08-16T15:49:13.667Z,3.00
2022-08-16T15:51:43.590Z,2.70
2022-08-16T15:54:29.008Z,2.43
2022-08-16T15:57:04.292Z,2.57
2022-08-16T15:59:48.258Z,2.20
2022-08-16T16:02:27.625Z,2.00
2022-08-16T16:05:00.703Z,2.53
2022-08-16T16:07:30.455Z,2.43
2022-08-16T16:09:59.205Z,3.10
2022-08-16T16:15:16.514Z,1.87
2022-08-16T16:17:50.797Z,2.17
2022-08-16T16:20:20.983Z,2.90
2022-08-16T16:22:49.317Z,2.10
2022-08-16T16:25:18.670Z,2.23
2022-08-16T16:27:55.258Z,3.70
2022-08-16T16:30:33.258Z,2.23
2022-08-16T16:33:15.604Z,2.70
2022-08-16T16:35:56.663Z,2.33
2022-08-16T16:38:28.529Z,2.30
2022-08-16T16:40:56.199Z,2.43
2022-08-16T16:43:25.727Z,2.40
2022-08-16T16:45:59.139Z,3.30
2022-08-16T16:48:34.365Z,1.83
2022-08-16T16:51:09.145Z,2.27
2022-08-16T16:53:42.069Z,3.40
2022-08-16T16:56:19.682Z,2.80
2022-08-16T16:59:01.130Z,2.17
2022-08-16T17:01:41.401Z,2.20
2022-08-16T17:04:31.461Z,2.40
2022-08-16T17:07:02.706Z,2.30
2022-08-16T17:09:30.701Z,2.47
2022-08-16T17:11:59.355Z,2.53
2022-08-16T17:14:32.929Z,3.57
2022-08-16T17:17:06.417Z,2.33
2022-08-16T17:19:40.344Z,2.30
2022-08-16T17:22:14.862Z,2.27
2022-08-16T17:24:45.199Z,2.37
2022-08-16T17:27:17.978Z,2.60
2022-08-16T17:29:47.450Z,1.70
2022-08-16T17:32:34.383Z,2.60
2022-08-16T17:35:18.299Z,3.10
2022-08-16T17:37:51.181Z,2.90
2022-08-16T17:40:25.858Z,2.97
2022-08-16T17:43:10.243Z,2.03
2022-08-16T17:45:39.150Z,2.07
2022-08-16T17:48:07.256Z,2.40
2022-08-16T17:50:40.610Z,2.93
2022-08-16T17:53:09.059Z,2.80
2022-08-16T17:55:39.710Z,2.03
2022-08-16T17:58:19.822Z,2.23
2022-08-16T18:00:52.187Z,2.83
2022-08-16T18:04:07.373Z,2.50
2022-08-16T18:06:15.638Z,3.60
2022-08-16T18:08:43.409Z,4.00
2022-08-16T18:11:13.265Z,3.53
2022-08-16T18:13:43.077Z,3.17
2022-08-16T18:16:11.406Z,3.67
2022-08-16T18:18:39.405Z,3.33
2022-08-16T18:21:25.113Z,3.60
2022-08-16T18:23:54.134Z,3.60
2022-08-16T18:26:21.993Z,3.53
2022-08-16T18:28:50.431Z,3.20
2022-08-16T18:31:18.344Z,4.30
2022-08-16T18:33:45.841Z,4.03
2022-08-16T18:36:20.144Z,4.37
2022-08-16T18:38:49.603Z,4.50
2022-08-16T18:41:19.128Z,4.50
2022-08-16T18:43:54.412Z,3.37
2022-08-16T18:46:34.510Z,3.10
2022-08-16T18:49:02.150Z,3.90
2022-08-16T18:51:30.428Z,3.40
2022-08-16T18:53:58.075Z,3.93
2022-08-16T18:56:55.897Z,3.63
2022-08-16T18:59:14.732Z,3.70
2022-08-16T19:01:47.626Z,3.43
2022-08-16T19:04:54.948Z,3.63
2022-08-16T19:07:07.385Z,3.63
2022-08-16T19:09:35.016Z,4.13
2022-08-16T19:12:06.178Z,4.30
2022-08-16T19:14:33.808Z,3.83
2022-08-16T19:17:01.442Z,4.03
2022-08-16T19:19:29.072Z,4.30
2022-08-16T19:21:58.218Z,4.47
2022-08-16T19:24:29.222Z,4.07
2022-08-16T19:26:57.273Z,4.97
2022-08-16T19:29:26.309Z,5.00
2022-08-16T19:31:53.930Z,4.30
2022-08-16T19:34:21.549Z,4.77
2022-08-16T19:36:49.172Z,4.00
2022-08-16T19:39:18.123Z,4.70
2022-08-16T19:41:52.990Z,4.87
2022-08-16T19:44:22.023Z,4.37
2022-08-16T19:46:51.458Z,3.87
2022-08-16T19:49:19.125Z,4.20
2022-08-16T19:51:49.163Z,5.00
2022-08-16T19:54:17.984Z,4.63
2022-08-16T19:56:45.606Z,4.07
2022-08-16T19:59:19.849Z,5.00
2022-08-16T20:01:52.445Z,3.97
2022-08-16T20:04:21.438Z,4.20
2022-08-16T20:06:49.135Z,4.80
2022-08-16T20:09:16.914Z,4.17
2022-08-16T20:11:45.165Z,4.70
2022-08-16T20:14:24.296Z,4.60
2022-08-16T20:16:56.974Z,4.17
2022-08-16T20:19:24.990Z,4.47
2022-08-16T20:21:54.033Z,5.20
2022-08-16T20:24:37.124Z,5.07
2022-08-16T20:27:07.274Z,5.20
2022-08-16T20:29:35.158Z,4.83
2022-08-16T20:32:05.425Z,4.53
2022-08-16T20:34:33.425Z,5.10
2022-08-16T20:37:06.319Z,5.03
2022-08-16T20:39:34.081Z,4.53
2022-08-16T20:42:01.740Z,6.43
2022-08-16T20:44:29.394Z,5.60
2022-08-16T20:46:57.110Z,5.80
2022-08-16T20:49:28.332Z,4.50
2022-08-16T20:51:59.369Z,5.00
2022-08-16T20:54:28.501Z,5.40
2022-08-16T20:56:56.460Z,5.47
2022-08-16T20:59:24.202Z,4.93
2022-08-16T21:01:51.988Z,5.90
2022-08-16T21:04:20.483Z,4.37
2022-08-16T21:06:53.749Z,5.50
2022-08-16T21:09:23.886Z,5.90
2022-08-16T21:11:53.918Z,5.83
2022-08-16T21:14:21.653Z,6.50
2022-08-16T21:16:49.351Z,5.50
2022-08-16T21:19:17.636Z,5.90
2022-08-16T21:21:45.347Z,5.80
2022-08-16T21:24:15.512Z,5.00
2022-08-16T21:26:49.796Z,5.70
2022-08-16T21:29:24.905Z,5.50
2022-08-16T21:31:53.931Z,5.43
2022-08-16T21:34:21.919Z,5.40
2022-08-16T21:36:49.833Z,5.50
2022-08-16T21:39:18.828Z,6.00
2022-08-16T21:41:46.474Z,5.37
2022-08-16T21:44:14.257Z,4.87
2022-08-16T21:46:41.876Z,4.90
2022-08-16T21:49:09.538Z,4.70
2022-08-16T21:51:37.261Z,6.17
2022-08-16T21:54:05.466Z,6.70
2022-08-16T21:56:34.489Z,5.73
2022-08-16T21:59:06.212Z,5.60
2022-08-16T22:01:33.924Z,6.33
2022-08-16T22:04:35.885Z,5.40
2022-08-16T22:06:49.439Z,6.00
2022-08-16T22:09:17.124Z,5.53
2022-08-16T22:11:46.211Z,5.60
2022-08-16T22:14:14.046Z,4.90
2022-08-16T22:16:43.434Z,5.30
2022-08-16T22:19:13.184Z,5.13
2022-08-16T22:21:41.159Z,5.43
2022-08-16T22:24:09.028Z,5.40
2022-08-16T22:26:43.141Z,5.00
2022-08-16T22:29:14.779Z,5.50
2022-08-16T22:31:43.474Z,6.00
2022-08-16T22:34:11.243Z,6.07
2022-08-16T22:36:39.373Z,5.47
2022-08-16T22:39:13.004Z,6.27
2022-08-16T22:41:43.289Z,5.57
2022-08-16T22:44:13.495Z,5.73
2022-08-16T22:46:41.254Z,6.20
2022-08-16T22:49:09.679Z,6.20
2022-08-16T22:51:38.847Z,5.60
2022-08-16T22:54:42.513Z,6.30
2022-08-16T22:56:56.443Z,6.60
2022-08-16T22:59:25.904Z,6.87
2022-08-16T23:01:53.836Z,6.97
2022-08-16T23:04:21.659Z,6.50
2022-08-16T23:06:49.354Z,6.53
2022-08-16T23:09:17.045Z,6.40
2022-08-16T23:11:44.840Z,7.83
2022-08-16T23:14:12.601Z,5.50
2022-08-16T23:16:41.614Z,5.80
2022-08-16T23:19:12.530Z,5.23
2022-08-16T23:24:11.917Z,5.77
2022-08-16T23:26:45.833Z,6.20
2022-08-16T23:29:23.796Z,6.33
2022-08-16T23:31:58.280Z,6.80
2022-08-16T23:34:28.221Z,6.10
2022-08-16T23:36:56.517Z,6.00
2022-08-16T23:39:24.431Z,6.10
2022-08-16T23:41:52.373Z,6.30
2022-08-16T23:44:56.859Z,6.13
2022-08-16T23:47:09.587Z,6.70
2022-08-16T23:50:00.799Z,6.13
2022-08-16T23:52:40.576Z,6.80
2022-08-16T23:55:13.496Z,6.03
2022-08-16T23:57:45.933Z,6.20
